Terminal Aerodrome Forecast
Issued by NWS

Home | Current Version | Previous Version | Text Only | Print | Product List | Glossary On
Versions: 1 2 3 4 5 6 7 8 9 10 11 12 13 14 15 16 17 18 19 20 21 22 23 24 25 26 27 28 29 30 31 32 33 34 35 36 37 38 39 40 41 42 43
907
FTUS43 KABR 250706 AAA
TAFMBG
TAF AMD
KMBG 250706Z 2507/2606 27022G31KT P6SM OVC013
     FM250900 29024G34KT P6SM VCSH OVC015
     FM251300 31024G34KT P6SM BKN035
     FM251500 32027G37KT P6SM SKC
     FM260100 30011KT P6SM SKC=

USA.gov is the U.S. government's official web portal to all federal, state and local government web resources and services.